Time;durP1;ratioP1;P1;durP2;ratioP2;P2;SDS_P1;SDS_P2;PMS_P1;PMS_P2;Temp;Humidity;BMP_temperature;BMP_pressure;BME280_temperature;BME280_humidity;BME280_pressure;Samples;Min_cycle;Max_cycle;Signal;HPM_P1;HPM_P2
2022/02/16 00:01:09;;;;;;;6.22;1.50;;;;;;;7.58;86.98;100109.97;5088762;28;20044;-68
2022/02/16 00:03:36;;;;;;;4.03;1.42;;;;;;;7.60;86.93;100097.47;5071426;28;20044;-68
2022/02/16 00:06:03;;;;;;;4.20;1.80;;;;;;;7.56;86.91;100094.28;5088885;28;20117;-68
2022/02/16 00:08:30;;;;;;;2.40;1.17;;;;;;;7.61;86.27;100094.69;5088762;28;20068;-68
2022/02/16 00:10:56;;;;;;;3.08;1.40;;;;;;;7.45;87.75;100082.13;5064629;28;20043;-68
2022/02/16 00:13:23;;;;;;;5.65;1.33;;;;;;;7.54;86.37;100082.22;5081631;28;20045;-68
2022/02/16 00:15:50;;;;;;;3.85;1.42;;;;;;;7.62;86.78;100082.28;5073752;28;20063;-68
2022/02/16 00:18:18;;;;;;;4.15;1.33;;;;;;;7.73;86.44;100076.81;5057826;28;20045;-68
2022/02/16 00:20:45;;;;;;;4.20;1.40;;;;;;;7.73;85.96;100082.09;5057900;28;20097;-68
2022/02/16 00:23:12;;;;;;;4.72;2.00;;;;;;;7.74;87.40;100067.88;5073846;28;20041;-68
2022/02/16 00:25:39;;;;;;;1.58;1.05;;;;;;;7.88;86.02;100067.34;5056977;28;20519;-68
2022/02/16 00:28:06;;;;;;;3.63;1.20;;;;;;;7.84;86.66;100065.16;5057697;28;20055;-68
2022/02/16 00:30:32;;;;;;;4.50;1.25;;;;;;;7.81;85.93;100065.47;5057053;28;20098;-68
2022/02/16 00:32:59;;;;;;;3.67;1.20;;;;;;;7.79;86.46;100056.88;5074990;28;20044;-67
2022/02/16 00:35:26;;;;;;;3.20;1.30;;;;;;;7.76;86.00;100050.09;5074602;28;20064;-67
2022/02/16 00:37:53;;;;;;;3.20;1.20;;;;;;;7.82;86.32;100052.13;5073706;28;20090;-68
2022/02/16 00:40:22;;;;;;;2.33;1.17;;;;;;;7.71;86.68;100046.25;5074758;28;20166;-68
2022/02/16 00:42:49;;;;;;;3.78;1.40;;;;;;;7.82;85.56;100038.94;5057048;28;20138;-67
2022/02/16 00:45:16;;;;;;;2.58;1.20;;;;;;;7.83;86.48;100045.84;5073357;28;20044;-67
2022/02/16 00:47:43;;;;;;;5.20;1.50;;;;;;;7.77;86.61;100030.63;5073638;28;20043;-67
2022/02/16 00:50:10;;;;;;;2.63;1.30;;;;;;;7.75;86.58;100029.97;5074878;28;20072;-67
2022/02/16 00:52:39;;;;;;;3.72;1.50;;;;;;;7.83;85.80;100019.44;5074816;28;20052;-67
2022/02/16 00:55:07;;;;;;;3.60;1.50;;;;;;;7.86;86.74;100020.97;5089940;28;20122;-67
2022/02/16 00:57:33;;;;;;;5.63;1.70;;;;;;;7.92;86.37;100012.41;5073312;28;20048;-67
2022/02/16 01:00:02;;;;;;;3.67;1.50;;;;;;;7.94;87.00;100009.63;5066778;28;20068;-67
2022/02/16 01:02:33;;;;;;;4.32;1.60;;;;;;;7.96;86.38;100008.47;5072714;28;20056;-68
2022/02/16 01:05:01;;;;;;;3.75;1.35;;;;;;;7.91;87.43;100018.66;5039634;28;20508;-68
2022/02/16 01:07:29;;;;;;;5.60;1.75;;;;;;;7.98;86.38;100010.97;5079775;28;20504;-67
2022/02/16 01:09:58;;;;;;;5.18;2.00;;;;;;;7.93;86.58;100002.66;5076717;28;20056;-67
2022/02/16 01:12:25;;;;;;;7.07;1.98;;;;;;;7.98;86.06;99995.94;5073077;28;20392;-67
2022/02/16 01:14:54;;;;;;;5.75;1.92;;;;;;;7.93;86.62;99994.75;5074082;28;20051;-67
2022/02/16 01:17:21;;;;;;;4.68;1.65;;;;;;;7.94;86.01;99991.13;5072813;28;20066;-67
2022/02/16 01:20:03;;;;;;;7.70;1.73;;;;;;;7.98;87.21;99984.56;5058573;28;20049;-68
2022/02/16 01:22:32;;;;;;;3.22;1.45;;;;;;;7.87;85.79;99994.38;5073891;28;20127;-67
2022/02/16 01:25:06;;;;;;;3.97;1.40;;;;;;;7.90;85.87;99990.63;5071606;28;20138;-67
2022/02/16 01:27:33;;;;;;;3.15;1.40;;;;;;;7.84;86.50;99981.50;5072838;28;20098;-67
2022/02/16 01:30:00;;;;;;;3.45;1.50;;;;;;;7.86;86.99;99968.97;5072632;28;20047;-67
2022/02/16 01:32:35;;;;;;;4.45;1.70;;;;;;;7.83;86.54;99971.91;5073935;28;20456;-67
2022/02/16 01:35:03;;;;;;;3.58;1.23;;;;;;;7.79;86.95;99962.66;5073784;28;20124;-68
2022/02/16 01:37:30;;;;;;;3.75;1.40;;;;;;;7.83;87.67;99956.06;5056363;28;20044;-67
2022/02/16 01:39:58;;;;;;;3.88;1.48;;;;;;;7.78;87.41;99960.97;5073226;28;20416;-67
2022/02/16 01:42:26;;;;;;;5.03;1.70;;;;;;;7.81;87.76;99952.75;5056304;28;20515;-67
2022/02/16 01:44:59;;;;;;;13.38;4.97;;;;;;;7.83;87.79;99949.97;5073502;28;20048;-68
2022/02/16 01:47:26;;;;;;;5.95;2.13;;;;;;;7.88;87.75;99952.97;5073376;28;20068;-68
2022/02/16 01:49:53;;;;;;;5.75;2.08;;;;;;;7.94;87.19;99935.69;5072360;28;20037;-67
2022/02/16 01:52:21;;;;;;;5.90;1.70;;;;;;;7.86;87.33;99928.53;5073395;28;20043;-68
2022/02/16 01:54:50;;;;;;;4.47;1.40;;;;;;;7.83;87.29;99939.41;5072654;28;20052;-67
2022/02/16 01:57:19;;;;;;;3.67;1.50;;;;;;;7.92;87.53;99929.72;5055994;28;20044;-67
2022/02/16 01:59:53;;;;;;;2.85;1.20;;;;;;;7.88;87.25;99931.84;5040664;28;20056;-68
2022/02/16 02:02:42;;;;;;;7.45;1.65;;;;;;;7.91;87.27;99918.31;5072043;28;20135;-67
2022/02/16 02:05:16;;;;;;;5.50;1.38;;;;;;;8.01;87.36;99926.13;5071881;28;20373;-67
2022/02/16 02:07:43;;;;;;;5.45;1.60;;;;;;;7.98;87.38;99916.69;5073034;28;20056;-67
2022/02/16 02:10:11;;;;;;;6.43;1.60;;;;;;;7.96;87.04;99923.97;5065975;28;20491;-68
2022/02/16 02:12:47;;;;;;;4.22;1.55;;;;;;;7.95;88.81;99924.09;5072916;28;20510;-67
2022/02/16 02:15:21;;;;;;;5.25;1.60;;;;;;;7.94;88.01;99920.66;5072680;28;20098;-67
2022/02/16 02:17:59;;;;;;;5.25;1.60;;;;;;;7.97;87.90;99914.25;5066022;28;20052;-67
2022/02/16 02:20:29;;;;;;;4.70;1.50;;;;;;;7.95;87.88;99900.34;5072794;28;20048;-68
2022/02/16 02:22:57;;;;;;;4.93;1.67;;;;;;;7.94;87.81;99903.97;5071822;28;20492;-68
2022/02/16 02:25:24;;;;;;;5.78;1.50;;;;;;;7.95;88.37;99893.28;5071455;28;20045;-68
2022/02/16 02:27:52;;;;;;;4.13;1.27;;;;;;;7.89;88.14;99891.25;5071859;28;20053;-67
2022/02/16 02:30:20;;;;;;;3.42;1.50;;;;;;;7.96;87.98;99884.34;5072864;28;20045;-68
2022/02/16 02:32:48;;;;;;;3.67;1.42;;;;;;;7.85;88.17;99884.63;5057852;28;20441;-68
2022/02/16 02:35:15;;;;;;;4.65;1.55;;;;;;;7.87;88.82;99872.91;5070824;28;20123;-68
2022/02/16 02:37:42;;;;;;;3.22;1.35;;;;;;;7.97;88.68;99867.53;5072739;28;20127;-68
2022/02/16 02:40:11;;;;;;;3.42;1.50;;;;;;;7.95;88.71;99866.84;5072769;28;20522;-68
2022/02/16 02:42:42;;;;;;;3.85;1.33;;;;;;;8.00;87.72;99864.53;5071434;28;20439;-68
2022/02/16 02:45:11;;;;;;;2.97;1.30;;;;;;;8.00;88.02;99853.97;5072514;28;20047;-68
2022/02/16 02:47:38;;;;;;;2.03;1.13;;;;;;;7.92;88.26;99850.50;5072665;28;20049;-68
2022/02/16 02:50:08;;;;;;;3.97;1.35;;;;;;;7.98;87.84;99849.84;5072685;28;20044;-68
2022/02/16 02:52:36;;;;;;;2.92;1.30;;;;;;;8.01;88.23;99842.44;5072476;28;20056;-68
2022/02/16 02:55:08;;;;;;;4.60;2.00;;;;;;;8.01;87.22;99831.88;5054821;28;20072;-68
2022/02/16 02:57:37;;;;;;;4.85;1.50;;;;;;;8.05;87.75;99835.84;5064854;28;20052;-68
2022/02/16 03:00:06;;;;;;;3.90;1.67;;;;;;;8.08;87.21;99830.25;5069808;28;20138;-68
2022/02/16 03:02:33;;;;;;;3.78;1.40;;;;;;;8.13;86.98;99818.38;5071323;28;20573;-68
2022/02/16 03:05:02;;;;;;;5.20;1.50;;;;;;;8.10;87.73;99813.44;5071795;28;20436;-68
2022/02/16 03:07:29;;;;;;;3.88;1.80;;;;;;;8.04;87.53;99814.88;5072315;28;20044;-68
2022/02/16 03:09:55;;;;;;;3.90;1.50;;;;;;;8.14;87.40;99822.69;5071234;28;20044;-68
2022/02/16 03:12:22;;;;;;;4.25;1.38;;;;;;;8.15;86.30;99811.97;5072634;28;20037;-68
2022/02/16 03:14:51;;;;;;;5.88;1.70;;;;;;;8.16;86.17;99815.41;5077526;28;20051;-67
2022/02/16 03:17:18;;;;;;;3.05;1.27;;;;;;;8.25;86.09;99820.56;5062126;28;20048;-68
2022/02/16 03:19:46;;;;;;;5.43;1.48;;;;;;;8.22;85.94;99809.47;5054904;28;20049;-68
2022/02/16 03:22:12;;;;;;;6.00;1.70;;;;;;;8.24;86.67;99810.13;5071997;28;20127;-68
2022/02/16 03:24:39;;;;;;;4.25;1.42;;;;;;;8.31;86.32;99812.97;5070448;28;20102;-68
2022/02/16 03:27:06;;;;;;;3.65;1.33;;;;;;;8.29;85.86;99805.19;5072114;28;20044;-68
2022/02/16 03:29:53;;;;;;;4.30;1.40;;;;;;;8.28;85.51;99800.91;5071892;28;20039;-68
2022/02/16 03:32:20;;;;;;;4.82;1.20;;;;;;;8.30;85.51;99795.47;5070978;28;20488;-68
2022/02/16 03:34:46;;;;;;;2.58;1.33;;;;;;;8.35;86.12;99794.00;5071540;28;20045;-68
2022/02/16 03:37:13;;;;;;;3.78;1.23;;;;;;;8.43;85.10;99795.84;5072177;28;20044;-67
2022/02/16 03:39:41;;;;;;;4.65;1.25;;;;;;;8.40;85.10;99801.44;5071796;28;20044;-67
2022/02/16 03:42:08;;;;;;;2.65;1.17;;;;;;;8.39;85.35;99797.97;5071171;28;20056;-67
2022/02/16 03:44:35;;;;;;;3.30;1.20;;;;;;;8.51;84.97;99795.03;5029824;28;20041;-67
2022/02/16 03:47:04;;;;;;;2.15;1.10;;;;;;;8.45;84.72;99801.81;5070974;28;20055;-68
2022/02/16 03:49:31;;;;;;;2.25;1.10;;;;;;;8.42;84.63;99802.97;5075357;28;20048;-68
2022/02/16 03:51:59;;;;;;;1.50;1.00;;;;;;;8.47;84.36;99794.53;5074657;28;20123;-67
2022/02/16 03:54:27;;;;;;;1.95;1.20;;;;;;;8.52;84.23;99794.06;5075400;28;20051;-67
2022/02/16 03:56:55;;;;;;;3.92;1.25;;;;;;;8.55;84.75;99794.56;5075716;28;20052;-67
2022/02/16 03:59:22;;;;;;;1.95;1.05;;;;;;;8.54;84.05;99786.78;5075741;28;20052;-67
2022/02/16 04:02:09;;;;;;;2.28;1.00;;;;;;;8.55;83.76;99783.13;5074291;28;20052;-67
2022/02/16 04:04:36;;;;;;;3.50;1.20;;;;;;;8.51;84.49;99774.69;5075389;28;20115;-67
2022/02/16 04:07:03;;;;;;;2.95;1.42;;;;;;;8.54;84.47;99771.75;5074538;28;20493;-67
2022/02/16 04:09:30;;;;;;;2.35;1.23;;;;;;;8.53;84.23;99769.25;5074349;28;20048;-67
2022/02/16 04:11:59;;;;;;;3.33;1.50;;;;;;;8.52;84.45;99762.34;5074432;28;20040;-67
2022/02/16 04:14:26;;;;;;;2.40;1.30;;;;;;;8.50;84.49;99761.69;5057799;28;20044;-67
2022/02/16 04:16:54;;;;;;;1.92;1.17;;;;;;;8.55;84.15;99754.06;5073783;28;20044;-67
2022/02/16 04:19:20;;;;;;;3.08;1.25;;;;;;;8.51;84.14;99744.81;5075611;28;20109;-68
2022/02/16 04:21:47;;;;;;;3.08;1.08;;;;;;;8.54;84.90;99757.69;5075299;28;20588;-68
2022/02/16 04:24:14;;;;;;;3.17;1.25;;;;;;;8.60;84.24;99746.47;5057217;28;20068;-68
2022/02/16 04:26:41;;;;;;;2.55;1.20;;;;;;;8.55;85.07;99731.09;5074934;28;20044;-68
2022/02/16 04:29:08;;;;;;;2.33;1.08;;;;;;;8.64;84.65;99739.84;5067449;28;20120;-68
2022/02/16 04:31:39;;;;;;;1.65;1.00;;;;;;;8.57;85.65;99725.66;5057287;28;20060;-68
2022/02/16 04:34:07;;;;;;;2.15;1.00;;;;;;;8.63;85.51;99727.63;5073755;28;20037;-68
2022/02/16 04:36:33;;;;;;;2.95;1.10;;;;;;;8.56;85.91;99716.88;5073412;28;20064;-68
2022/02/16 04:39:04;;;;;;;3.03;1.13;;;;;;;8.60;85.64;99720.03;5068228;28;20048;-68
2022/02/16 04:41:33;;;;;;;2.80;1.23;;;;;;;8.58;85.69;99717.53;5073484;28;20040;-68
2022/02/16 04:44:05;;;;;;;2.40;1.30;;;;;;;8.64;85.67;99714.25;5074955;28;20117;-68
2022/02/16 04:46:34;;;;;;;2.60;1.10;;;;;;;8.63;86.38;99711.75;5074547;28;20045;-68
2022/02/16 04:49:02;;;;;;;2.88;1.15;;;;;;;8.61;86.32;99711.09;5074874;28;20546;-68
2022/02/16 04:51:29;;;;;;;3.40;1.30;;;;;;;8.56;86.78;99697.56;5074592;28;20127;-68
2022/02/16 04:53:56;;;;;;;3.88;1.02;;;;;;;8.49;86.38;99707.16;5073414;28;20040;-68
2022/02/16 04:56:23;;;;;;;3.85;1.42;;;;;;;8.50;87.65;99695.59;5073051;28;20119;-68
2022/02/16 04:58:49;;;;;;;1.65;0.90;;;;;;;8.52;87.48;99697.06;5073182;28;20040;-68
2022/02/16 05:01:20;;;;;;;6.68;1.27;;;;;;;8.50;87.64;99692.94;5069471;28;20496;-68
2022/02/16 05:03:50;;;;;;;5.18;1.35;;;;;;;8.47;87.64;99686.16;5074007;28;20074;-68
2022/02/16 05:06:18;;;;;;;4.50;1.48;;;;;;;8.43;87.82;99669.81;5074196;28;20040;-67
2022/02/16 05:08:45;;;;;;;3.65;1.35;;;;;;;8.37;89.05;99665.16;5040313;28;20554;-68
2022/02/16 05:11:11;;;;;;;1.42;1.00;;;;;;;8.47;87.85;99659.72;5073038;28;20523;-68
2022/02/16 05:13:49;;;;;;;3.33;1.20;;;;;;;8.42;88.55;99651.47;5073040;28;20047;-68
2022/02/16 05:16:15;;;;;;;3.97;1.35;;;;;;;8.39;88.73;99654.44;5073975;28;20060;-68
2022/02/16 05:18:42;;;;;;;3.15;1.30;;;;;;;8.34;88.51;99640.88;5056630;28;20048;-68
2022/02/16 05:21:12;;;;;;;3.63;1.08;;;;;;;8.39;88.88;99633.28;5065593;28;20401;-68
2022/02/16 05:23:39;;;;;;;3.15;1.20;;;;;;;8.38;88.69;99624.53;5072913;28;20040;-68
2022/02/16 05:26:11;;;;;;;2.47;0.95;;;;;;;8.41;89.21;99615.44;5068709;28;20087;-68
2022/02/16 05:28:38;;;;;;;6.68;1.30;;;;;;;8.39;88.89;99610.31;5062402;28;20048;-68
2022/02/16 05:31:05;;;;;;;4.03;1.17;;;;;;;8.39;89.24;99609.50;5055072;28;20493;-68
2022/02/16 05:33:32;;;;;;;5.28;1.40;;;;;;;8.42;88.53;99604.75;5070163;28;20036;-68
2022/02/16 05:36:00;;;;;;;4.05;1.23;;;;;;;8.41;89.20;99596.94;5065146;28;20118;-68
2022/02/16 05:38:27;;;;;;;6.80;1.67;;;;;;;8.41;89.26;99589.03;5073938;28;20508;-68
2022/02/16 05:40:55;;;;;;;5.63;2.30;;;;;;;8.45;88.41;99582.44;5055887;28;20142;-68
2022/02/16 05:43:22;;;;;;;7.70;2.42;;;;;;;8.51;87.43;99589.66;5072548;28;20044;-68
2022/02/16 05:45:49;;;;;;;7.72;3.03;;;;;;;8.52;87.48;99575.47;5072191;28;20063;-68
2022/02/16 05:48:20;;;;;;;9.88;3.05;;;;;;;8.44;87.38;99578.13;5056155;28;20045;-68
2022/02/16 05:50:52;;;;;;;9.43;3.00;;;;;;;8.47;88.04;99569.88;5072468;28;20049;-68
2022/02/16 05:53:19;;;;;;;7.38;2.55;;;;;;;8.47;87.03;99556.66;5073325;28;20131;-68
2022/02/16 05:55:46;;;;;;;6.03;1.98;;;;;;;8.39;86.97;99556.66;5072844;28;20045;-68
2022/02/16 05:58:13;;;;;;;5.70;1.90;;;;;;;8.38;87.43;99555.00;5072620;28;20048;-67
2022/02/16 06:00:40;;;;;;;5.72;1.55;;;;;;;8.30;87.58;99536.53;5073080;28;20040;-68
2022/02/16 06:03:18;;;;;;;3.85;1.40;;;;;;;8.34;87.88;99537.84;5073230;28;20040;-68
2022/02/16 06:05:44;;;;;;;3.67;1.38;;;;;;;8.39;87.89;99533.69;5062960;28;20485;-68
2022/02/16 06:08:11;;;;;;;1.63;1.20;;;;;;;8.45;86.77;99529.56;5055157;28;20040;-68
2022/02/16 06:10:38;;;;;;;4.95;1.27;;;;;;;8.48;87.11;99529.25;5054337;28;20044;-69
2022/02/16 06:13:06;;;;;;;4.90;1.65;;;;;;;8.47;87.14;99524.13;5073092;28;20048;-68
2022/02/16 06:15:33;;;;;;;1.90;1.13;;;;;;;8.43;86.21;99521.81;5055556;28;20408;-68
2022/02/16 06:17:59;;;;;;;2.05;1.30;;;;;;;8.48;86.76;99517.81;5072954;28;20122;-67
2022/02/16 06:20:26;;;;;;;5.53;1.50;;;;;;;8.51;86.49;99520.94;5071835;28;20404;-68
2022/02/16 06:22:56;;;;;;;6.45;1.48;;;;;;;8.51;86.73;99513.03;5072743;28;20045;-67
2022/02/16 06:25:24;;;;;;;7.45;1.50;;;;;;;8.60;86.27;99511.19;5054452;28;20083;-67
2022/02/16 06:27:51;;;;;;;3.83;1.50;;;;;;;8.56;86.50;99508.06;5071603;28;20044;-67
2022/02/16 06:30:18;;;;;;;3.50;1.40;;;;;;;8.64;86.35;99496.63;5080347;28;20067;-67
2022/02/16 06:32:55;;;;;;;5.03;1.40;;;;;;;8.54;86.21;99493.38;5072694;28;20099;-67
2022/02/16 06:35:23;;;;;;;2.55;1.17;;;;;;;8.71;84.61;99491.47;5054805;28;20446;-67
2022/02/16 06:37:50;;;;;;;3.72;1.30;;;;;;;8.72;85.08;99482.56;5071239;28;20124;-67
2022/02/16 06:40:19;;;;;;;3.78;1.27;;;;;;;8.73;85.51;99486.84;5072476;28;20070;-67
2022/02/16 06:42:48;;;;;;;8.50;1.40;;;;;;;8.75;85.03;99483.03;5071164;28;20063;-68
2022/02/16 06:45:17;;;;;;;3.63;1.30;;;;;;;8.80;84.53;99482.50;5071551;28;20135;-67
2022/02/16 06:47:47;;;;;;;4.25;1.30;;;;;;;8.80;84.53;99471.94;5072672;28;20036;-67
2022/02/16 06:50:15;;;;;;;5.57;1.42;;;;;;;8.88;85.72;99474.53;5071194;28;20127;-67
2022/02/16 06:53:01;;;;;;;4.20;1.30;;;;;;;8.80;86.11;99464.00;5072190;28;20043;-67
2022/02/16 06:55:30;;;;;;;3.25;1.20;;;;;;;8.82;85.81;99460.19;5070943;28;20471;-68
2022/02/16 06:57:59;;;;;;;2.58;1.17;;;;;;;8.79;86.01;99457.06;5072593;28;20044;-67
2022/02/16 07:00:25;;;;;;;3.88;1.30;;;;;;;8.87;86.15;99454.38;5069507;28;20517;-67
2022/02/16 07:02:52;;;;;;;2.35;1.15;;;;;;;8.90;86.37;99450.56;5062624;28;20048;-68
2022/02/16 07:05:27;;;;;;;2.30;1.00;;;;;;;8.84;86.11;99444.13;5050941;28;20562;-70
2022/02/16 07:07:55;;;;;;;3.97;1.38;;;;;;;8.92;87.70;99443.28;5065773;28;20045;-65
2022/02/16 07:10:25;;;;;;;3.13;1.42;;;;;;;8.85;87.81;99456.38;5084115;28;20037;-66
2022/02/16 07:12:53;;;;;;;6.72;1.88;;;;;;;9.02;86.48;99444.69;5066053;28;20158;-68
2022/02/16 07:15:20;;;;;;;1.30;1.00;;;;;;;9.03;86.43;99450.81;5063313;28;20062;-68
2022/02/16 07:17:51;;;;;;;1.45;0.90;;;;;;;9.01;86.26;99452.81;5067600;28;20056;-68
2022/02/16 07:20:18;;;;;;;2.30;1.00;;;;;;;9.06;86.65;99445.19;5046532;28;20156;-67
2022/02/16 07:22:47;;;;;;;1.63;1.00;;;;;;;9.08;85.67;99447.63;5071146;28;20090;-67
2022/02/16 07:25:16;;;;;;;2.13;1.05;;;;;;;9.07;86.90;99422.19;5073913;28;20037;-67
2022/02/16 07:27:56;;;;;;;3.15;1.20;;;;;;;9.14;86.17;99426.59;5097727;27;20041;-68
2022/02/16 07:30:23;;;;;;;2.92;1.05;;;;;;;9.12;86.21;99441.81;5081852;28;20046;-68
2022/02/16 07:32:50;;;;;;;4.78;1.00;;;;;;;9.23;86.76;99404.34;5075461;28;20045;-68
2022/02/16 07:35:18;;;;;;;1.60;0.80;;;;;;;9.15;86.65;99422.09;5073788;28;20497;-68
2022/02/16 07:37:45;;;;;;;1.15;0.98;;;;;;;9.20;86.33;99425.06;5075770;28;20481;-68
2022/02/16 07:40:12;;;;;;;1.10;0.82;;;;;;;9.15;86.42;99427.41;5057706;28;20040;-68
2022/02/16 07:42:40;;;;;;;2.45;1.08;;;;;;;9.14;86.87;99416.00;5074589;28;20565;-68
2022/02/16 07:45:27;;;;;;;4.70;1.48;;;;;;;9.17;86.87;99410.38;5065625;28;20041;-68
2022/02/16 07:47:55;;;;;;;2.10;0.98;;;;;;;9.19;87.13;99404.91;5078920;28;20040;-68
2022/02/16 07:50:22;;;;;;;5.05;0.90;;;;;;;9.13;87.15;99406.44;5074627;28;20048;-68
2022/02/16 07:53:11;;;;;;;3.55;1.05;;;;;;;9.16;88.45;99419.28;5074270;28;20040;-68
2022/02/16 07:55:44;;;;;;;1.73;0.82;;;;;;;9.16;87.89;99414.00;5075236;28;20044;-68
2022/02/16 07:58:12;;;;;;;3.22;0.70;;;;;;;9.21;87.57;99411.66;5037811;28;20115;-67
2022/02/16 08:00:40;;;;;;;2.08;0.90;;;;;;;9.31;87.68;99418.50;5075239;28;20041;-68
2022/02/16 08:03:12;;;;;;;1.67;1.02;;;;;;;9.33;87.38;99403.28;5038520;28;20044;-68
2022/02/16 08:05:41;;;;;;;1.35;0.82;;;;;;;9.37;86.92;99399.28;5046063;28;20065;-68
2022/02/16 08:08:14;;;;;;;3.03;1.00;;;;;;;9.47;86.42;99406.97;5024600;28;20057;-68
2022/02/16 08:10:48;;;;;;;2.72;0.90;;;;;;;9.51;86.50;99373.84;5054389;28;20131;-68
2022/02/16 08:13:17;;;;;;;1.55;0.75;;;;;;;9.60;85.76;99400.06;5055223;28;20123;-68
2022/02/16 08:16:06;;;;;;;0.95;0.70;;;;;;;9.68;85.33;99393.03;5040134;28;20033;-68
2022/02/16 08:18:35;;;;;;;1.42;0.80;;;;;;;9.68;85.06;99383.28;5051979;28;20056;-68
2022/02/16 08:21:02;;;;;;;2.08;0.70;;;;;;;9.72;85.76;99387.19;5054152;28;20110;-68
2022/02/16 08:23:38;;;;;;;2.08;0.70;;;;;;;9.77;86.01;99397.25;5053591;28;20123;-68
2022/02/16 08:26:05;;;;;;;1.15;0.70;;;;;;;9.72;86.35;99387.19;5054377;28;20111;-68
2022/02/16 08:28:33;;;;;;;1.77;0.70;;;;;;;9.74;86.33;99385.19;5053543;28;20041;-68
2022/02/16 08:31:01;;;;;;;1.15;0.70;;;;;;;9.70;87.20;99383.09;5035994;28;20120;-68
2022/02/16 08:33:43;;;;;;;1.17;0.65;;;;;;;9.66;88.74;99387.09;5047327;28;20045;-68
2022/02/16 08:36:11;;;;;;;2.75;1.02;;;;;;;9.73;88.06;99391.50;5034965;28;20047;-67
2022/02/16 08:38:39;;;;;;;1.17;0.80;;;;;;;9.71;88.45;99384.72;5034252;28;20087;-67
2022/02/16 08:41:07;;;;;;;2.95;0.85;;;;;;;9.66;88.28;99384.44;5044305;28;20103;-67
2022/02/16 08:43:36;;;;;;;2.22;0.95;;;;;;;9.58;89.23;99391.47;5080083;28;20047;-68
2022/02/16 08:46:03;;;;;;;1.45;0.80;;;;;;;9.59;89.30;99384.38;5017103;28;20365;-67
2022/02/16 08:48:30;;;;;;;2.25;0.90;;;;;;;9.68;88.50;99380.63;5043721;28;20045;-67
2022/02/16 08:50:57;;;;;;;0.80;0.70;;;;;;;9.63;89.07;99393.59;5069021;28;20051;-67
2022/02/16 08:53:26;;;;;;;1.85;0.93;;;;;;;9.72;88.67;99373.97;5045460;28;20495;-67
2022/02/16 08:55:55;;;;;;;1.00;0.80;;;;;;;9.78;88.00;99386.47;5049858;28;20049;-68
2022/02/16 08:58:22;;;;;;;1.23;0.70;;;;;;;9.74;88.53;99405.56;5051901;28;20110;-68
2022/02/16 09:00:49;;;;;;;1.00;0.60;;;;;;;9.85;88.53;99393.69;5052244;28;20473;-68
2022/02/16 09:03:16;;;;;;;2.15;1.00;;;;;;;9.83;88.52;99385.94;5053581;28;20140;-67
2022/02/16 09:05:43;;;;;;;11.13;0.93;;;;;;;9.88;88.06;99403.94;5066947;28;20040;-67
2022/02/16 09:08:10;;;;;;;1.08;0.70;;;;;;;9.92;88.31;99419.28;5072038;28;20044;-67
2022/02/16 09:10:37;;;;;;;0.65;0.60;;;;;;;9.95;87.92;99416.25;5034298;28;20036;-67
2022/02/16 09:13:05;;;;;;;2.08;0.80;;;;;;;10.03;87.76;99403.94;5067024;28;20512;-67
2022/02/16 09:15:32;;;;;;;1.90;0.88;;;;;;;9.97;88.00;99416.91;5071381;28;20072;-67
2022/02/16 09:17:59;;;;;;;1.73;0.60;;;;;;;9.97;88.04;99421.38;5069574;28;20105;-67
2022/02/16 09:20:26;;;;;;;1.23;0.80;;;;;;;10.07;88.14;99421.09;5069055;28;20072;-68
2022/02/16 09:22:53;;;;;;;1.50;0.82;;;;;;;10.07;87.64;99416.63;5067883;28;20055;-67
2022/02/16 09:25:21;;;;;;;0.73;0.70;;;;;;;10.04;87.49;99414.34;5069860;28;20064;-67
2022/02/16 09:27:49;;;;;;;2.40;0.73;;;;;;;10.14;87.40;99417.53;5071732;28;20489;-67
2022/02/16 09:30:16;;;;;;;3.22;0.80;;;;;;;10.13;87.57;99412.41;5051043;28;20070;-67
2022/02/16 09:32:43;;;;;;;2.55;0.95;;;;;;;10.14;87.52;99433.44;5068293;28;20047;-68
2022/02/16 09:35:10;;;;;;;2.35;1.35;;;;;;;10.14;88.45;99406.13;5100452;28;20131;-67
2022/02/16 09:37:37;;;;;;;3.28;1.27;;;;;;;10.13;88.99;99407.94;5069111;28;20043;-68
2022/02/16 09:40:05;;;;;;;8.65;3.17;;;;;;;10.18;89.30;99399.44;5070611;28;20068;-68
2022/02/16 09:42:33;;;;;;;5.88;1.90;;;;;;;10.21;89.72;99409.69;5063226;28;20132;-68
2022/02/16 09:45:02;;;;;;;7.68;2.45;;;;;;;10.19;89.99;99404.56;5056432;28;20041;-68
2022/02/16 09:47:32;;;;;;;4.55;1.30;;;;;;;10.21;89.68;99409.69;5071284;28;20381;-68
2022/02/16 09:50:00;;;;;;;4.75;2.00;;;;;;;10.27;90.12;99413.41;5105825;27;20041;-68
2022/02/16 09:52:27;;;;;;;8.52;1.95;;;;;;;10.30;89.47;99416.53;5071509;28;20044;-69
2022/02/16 09:54:57;;;;;;;5.85;1.20;;;;;;;10.35;89.05;99422.13;5046213;28;21385;-68
2022/02/16 09:57:24;;;;;;;1.55;1.00;;;;;;;10.32;89.37;99416.38;5053350;28;20063;-68
2022/02/16 09:59:53;;;;;;;2.13;1.17;;;;;;;10.32;89.54;99419.03;5073585;28;20148;-68
2022/02/16 10:02:19;;;;;;;2.42;0.90;;;;;;;10.37;89.01;99416.66;5053430;28;20056;-68
2022/02/16 10:04:56;;;;;;;2.20;1.00;;;;;;;10.38;89.35;99434.19;5052194;28;20040;-68
2022/02/16 10:07:26;;;;;;;4.75;1.50;;;;;;;10.45;88.92;99428.97;5065931;28;20130;-68
2022/02/16 10:09:54;;;;;;;4.25;1.20;;;;;;;10.51;88.42;99428.22;5070610;28;20445;-68
2022/02/16 10:12:32;;;;;;;1.23;0.90;;;;;;;10.50;88.60;99422.09;5065188;28;20036;-68
2022/02/16 10:14:59;;;;;;;2.83;1.15;;;;;;;10.60;88.26;99420.97;5059546;28;20124;-68
2022/02/16 10:17:28;;;;;;;4.70;1.20;;;;;;;10.66;88.14;99417.56;5069743;28;20068;-68
2022/02/16 10:19:57;;;;;;;2.17;0.95;;;;;;;10.75;88.09;99416.44;5049180;28;20400;-68
2022/02/16 10:22:30;;;;;;;1.85;0.93;;;;;;;10.75;88.46;99419.09;5068987;28;20044;-68
2022/02/16 10:28:12;;;;;;;3.95;1.30;;;;;;;10.82;88.33;99432.44;5117030;27;20399;-68
2022/02/16 10:30:55;;;;;;;4.03;1.17;;;;;;;10.87;88.41;99424.75;5107394;28;20048;-68
2022/02/16 10:33:26;;;;;;;2.58;1.20;;;;;;;10.85;89.10;99424.13;5109182;28;20480;-68
2022/02/16 10:36:14;;;;;;;4.90;1.13;;;;;;;10.93;88.92;99427.47;5109094;28;20040;-68
2022/02/16 10:38:59;;;;;;;3.50;1.20;;;;;;;10.92;89.48;99436.44;5113024;28;20123;-68
2022/02/16 10:41:30;;;;;;;4.05;1.30;;;;;;;10.91;89.39;99434.81;5115766;28;20047;-68
2022/02/16 10:43:58;;;;;;;3.22;1.17;;;;;;;10.86;90.21;99420.44;5105393;28;20036;-67
2022/02/16 10:46:28;;;;;;;4.20;1.55;;;;;;;10.76;90.71;99432.19;5084481;28;20050;-68
2022/02/16 10:51:47;;;;;;;2.17;1.23;;;;;;;10.70;91.79;99435.59;5071805;27;20878;-67
2022/02/16 10:54:19;;;;;;;3.75;1.35;;;;;;;10.75;91.81;99427.91;5087720;28;20045;-67
2022/02/16 10:56:49;;;;;;;3.58;1.60;;;;;;;10.81;91.91;99425.53;5050298;28;20133;-68
2022/02/16 10:59:16;;;;;;;4.32;1.63;;;;;;;10.91;91.59;99426.00;5030411;28;20405;-68
2022/02/16 11:01:44;;;;;;;2.55;1.42;;;;;;;10.88;91.70;99411.31;5055691;28;20452;-68
2022/02/16 11:04:13;;;;;;;5.30;1.50;;;;;;;10.92;92.28;99431.13;5056807;28;20508;-68
2022/02/16 11:06:44;;;;;;;3.15;1.25;;;;;;;10.97;91.41;99454.47;5040295;28;20041;-68
2022/02/16 11:09:17;;;;;;;1.83;1.10;;;;;;;10.88;92.29;99429.06;5054948;28;20111;-68
2022/02/16 11:11:46;;;;;;;3.15;1.40;;;;;;;11.01;92.24;99428.38;5049641;28;20047;-67
2022/02/16 11:14:13;;;;;;;2.72;1.63;;;;;;;11.09;91.76;99422.94;5016343;28;20083;-67
2022/02/16 11:16:41;;;;;;;4.85;1.40;;;;;;;11.18;91.68;99418.31;5048276;28;20045;-67
2022/02/16 11:19:26;;;;;;;5.00;1.48;;;;;;;11.15;92.24;99406.22;5051134;28;20037;-67
2022/02/16 11:24:41;;;;;;;3.65;1.52;;;;;;;11.14;91.98;99400.13;5100504;27;20755;-68
2022/02/16 11:27:34;;;;;;;4.75;1.80;;;;;;;11.08;92.06;99394.75;5069997;28;20082;-67
2022/02/16 11:30:05;;;;;;;5.43;2.03;;;;;;;11.13;92.05;99377.25;5069570;28;20032;-67
2022/02/16 11:32:41;;;;;;;4.30;1.75;;;;;;;11.13;92.38;99369.28;5095175;28;20074;-67
2022/02/16 11:35:26;;;;;;;2.60;1.50;;;;;;;11.18;91.84;99366.06;5070490;28;20048;-68
2022/02/16 11:38:11;;;;;;;5.35;1.98;;;;;;;11.13;92.33;99376.41;5080244;28;20496;-68
2022/02/16 11:40:56;;;;;;;4.22;1.83;;;;;;;11.23;91.96;99378.75;5086770;28;20036;-68
2022/02/16 11:43:51;;;;;;;5.55;1.90;;;;;;;11.32;92.02;99375.78;5085519;28;20431;-68
2022/02/16 11:46:41;;;;;;;7.00;2.17;;;;;;;11.43;91.60;99365.66;5083316;28;20090;-68
2022/02/16 11:49:32;;;;;;;3.97;1.90;;;;;;;11.30;91.98;99363.72;5086040;28;20047;-69
2022/02/16 11:51:59;;;;;;;3.92;1.92;;;;;;;11.40;91.30;99366.84;5114508;28;20048;-68
2022/02/16 11:54:48;;;;;;;4.93;1.98;;;;;;;11.44;91.54;99383.19;5053811;28;20108;-68
2022/02/16 11:57:38;;;;;;;5.35;2.00;;;;;;;11.40;91.69;99384.59;5088783;28;20559;-68
2022/02/16 12:03:05;;;;;;;4.40;1.70;;;;;;;11.29;91.76;99360.22;5083433;27;20394;-67